sensor_id;sensor_type;location;lat;lon;timestamp;temperature;humidity
68439;SHT31;55421;51.600;5.718;2022-11-06T00:01:17;10.07;79.60
68439;SHT31;55421;51.600;5.718;2022-11-06T00:03:45;10.05;79.59
68439;SHT31;55421;51.600;5.718;2022-11-06T00:06:13;10.02;79.60
68439;SHT31;55421;51.600;5.718;2022-11-06T00:09:01;9.97;79.70
68439;SHT31;55421;51.600;5.718;2022-11-06T00:11:32;9.97;79.73
68439;SHT31;55421;51.600;5.718;2022-11-06T00:13:59;9.97;79.76
68439;SHT31;55421;51.600;5.718;2022-11-06T00:16:27;9.96;79.80
68439;SHT31;55421;51.600;5.718;2022-11-06T00:18:54;9.95;79.81
68439;SHT31;55421;51.600;5.718;2022-11-06T00:21:25;9.95;79.88
68439;SHT31;55421;51.600;5.718;2022-11-06T00:23:55;9.93;79.90
68439;SHT31;55421;51.600;5.718;2022-11-06T00:26:24;9.91;79.90
68439;SHT31;55421;51.600;5.718;2022-11-06T00:28:53;9.89;79.90
68439;SHT31;55421;51.600;5.718;2022-11-06T00:31:22;9.88;79.92
68439;SHT31;55421;51.600;5.718;2022-11-06T00:33:55;9.89;79.96
68439;SHT31;55421;51.600;5.718;2022-11-06T00:36:25;9.88;79.98
68439;SHT31;55421;51.600;5.718;2022-11-06T00:38:55;9.86;80.00
68439;SHT31;55421;51.600;5.718;2022-11-06T00:41:23;9.84;80.00
68439;SHT31;55421;51.600;5.718;2022-11-06T00:43:52;9.84;80.00
68439;SHT31;55421;51.600;5.718;2022-11-06T00:46:22;9.84;80.00
68439;SHT31;55421;51.600;5.718;2022-11-06T00:48:50;9.87;79.93
68439;SHT31;55421;51.600;5.718;2022-11-06T00:51:19;9.90;79.91
68439;SHT31;55421;51.600;5.718;2022-11-06T00:53:55;9.91;79.86
68439;SHT31;55421;51.600;5.718;2022-11-06T00:56:24;9.93;79.90
68439;SHT31;55421;51.600;5.718;2022-11-06T00:58:52;9.92;79.85
68439;SHT31;55421;51.600;5.718;2022-11-06T01:01:27;9.90;79.90
68439;SHT31;55421;51.600;5.718;2022-11-06T01:04:08;9.91;79.90
68439;SHT31;55421;51.600;5.718;2022-11-06T01:06:46;9.92;79.91
68439;SHT31;55421;51.600;5.718;2022-11-06T01:09:17;9.93;79.91
68439;SHT31;55421;51.600;5.718;2022-11-06T01:11:47;9.93;79.90
68439;SHT31;55421;51.600;5.718;2022-11-06T01:14:18;9.92;79.90
68439;SHT31;55421;51.600;5.718;2022-11-06T01:16:47;9.87;79.90
68439;SHT31;55421;51.600;5.718;2022-11-06T01:19:14;9.86;79.87
68439;SHT31;55421;51.600;5.718;2022-11-06T01:21:44;9.86;79.87
68439;SHT31;55421;51.600;5.718;2022-11-06T01:24:14;9.85;79.80
68439;SHT31;55421;51.600;5.718;2022-11-06T01:26:47;9.81;79.80
68439;SHT31;55421;51.600;5.718;2022-11-06T01:29:15;9.80;79.89
68439;SHT31;55421;51.600;5.718;2022-11-06T01:31:43;9.76;79.88
68439;SHT31;55421;51.600;5.718;2022-11-06T01:34:12;9.73;79.88
68439;SHT31;55421;51.600;5.718;2022-11-06T01:36:38;9.72;79.91
68439;SHT31;55421;51.600;5.718;2022-11-06T01:39:06;9.71;79.92
68439;SHT31;55421;51.600;5.718;2022-11-06T01:41:43;9.71;79.99
68439;SHT31;55421;51.600;5.718;2022-11-06T01:46:39;9.66;80.05
68439;SHT31;55421;51.600;5.718;2022-11-06T01:49:07;9.61;80.07
68439;SHT31;55421;51.600;5.718;2022-11-06T01:51:55;9.61;80.14
68439;SHT31;55421;51.600;5.718;2022-11-06T01:54:27;9.62;80.20
68439;SHT31;55421;51.600;5.718;2022-11-06T01:56:56;9.66;80.24
68439;SHT31;55421;51.600;5.718;2022-11-06T01:59:26;9.68;80.25
68439;SHT31;55421;51.600;5.718;2022-11-06T02:01:57;9.70;80.26
68439;SHT31;55421;51.600;5.718;2022-11-06T02:04:24;9.69;80.30
68439;SHT31;55421;51.600;5.718;2022-11-06T02:06:55;9.71;80.30
68439;SHT31;55421;51.600;5.718;2022-11-06T02:09:23;9.72;80.25
68439;SHT31;55421;51.600;5.718;2022-11-06T02:11:52;9.74;80.28
68439;SHT31;55421;51.600;5.718;2022-11-06T02:15:12;9.78;80.30
68439;SHT31;55421;51.600;5.718;2022-11-06T02:18:08;9.82;80.30
68439;SHT31;55421;51.600;5.718;2022-11-06T02:20:55;9.84;80.23
68439;SHT31;55421;51.600;5.718;2022-11-06T02:29:19;9.89;80.21
68439;SHT31;55421;51.600;5.718;2022-11-06T02:32:03;9.94;80.21
68439;SHT31;55421;51.600;5.718;2022-11-06T02:34:37;9.98;80.20
68439;SHT31;55421;51.600;5.718;2022-11-06T02:37:08;10.01;80.12
68439;SHT31;55421;51.600;5.718;2022-11-06T02:39:42;10.02;80.10
68439;SHT31;55421;51.600;5.718;2022-11-06T02:42:14;10.02;80.10
68439;SHT31;55421;51.600;5.718;2022-11-06T02:44:46;10.05;80.10
68439;SHT31;55421;51.600;5.718;2022-11-06T02:47:17;10.06;80.08
68439;SHT31;55421;51.600;5.718;2022-11-06T02:49:54;10.08;80.08
68439;SHT31;55421;51.600;5.718;2022-11-06T02:52:31;10.10;80.08
68439;SHT31;55421;51.600;5.718;2022-11-06T02:55:09;10.13;80.06
68439;SHT31;55421;51.600;5.718;2022-11-06T02:57:45;10.13;80.00
68439;SHT31;55421;51.600;5.718;2022-11-06T03:00:22;10.13;80.00
68439;SHT31;55421;51.600;5.718;2022-11-06T03:02:55;10.12;80.02
68439;SHT31;55421;51.600;5.718;2022-11-06T03:05:43;10.14;80.00
68439;SHT31;55421;51.600;5.718;2022-11-06T03:11:28;10.22;80.03
68439;SHT31;55421;51.600;5.718;2022-11-06T03:14:17;10.24;79.99
68439;SHT31;55421;51.600;5.718;2022-11-06T03:16:59;10.24;80.00
68439;SHT31;55421;51.600;5.718;2022-11-06T03:20:02;10.22;80.01
68439;SHT31;55421;51.600;5.718;2022-11-06T03:25:58;10.28;80.00
68439;SHT31;55421;51.600;5.718;2022-11-06T03:28:50;10.32;80.00
68439;SHT31;55421;51.600;5.718;2022-11-06T03:31:20;10.33;80.00
68439;SHT31;55421;51.600;5.718;2022-11-06T03:34:00;10.33;79.94
68439;SHT31;55421;51.600;5.718;2022-11-06T03:36:35;10.33;79.95
68439;SHT31;55421;51.600;5.718;2022-11-06T03:39:24;10.31;79.92
68439;SHT31;55421;51.600;5.718;2022-11-06T03:44:32;10.32;79.90
68439;SHT31;55421;51.600;5.718;2022-11-06T03:47:08;10.34;79.95
68439;SHT31;55421;51.600;5.718;2022-11-06T03:49:49;10.36;79.90
68439;SHT31;55421;51.600;5.718;2022-11-06T03:52:24;10.36;79.90
68439;SHT31;55421;51.600;5.718;2022-11-06T03:55:07;10.34;79.90
68439;SHT31;55421;51.600;5.718;2022-11-06T03:57:41;10.33;79.98
68439;SHT31;55421;51.600;5.718;2022-11-06T04:00:15;10.34;79.99
68439;SHT31;55421;51.600;5.718;2022-11-06T04:02:47;10.37;80.00
68439;SHT31;55421;51.600;5.718;2022-11-06T04:05:37;10.38;80.00
68439;SHT31;55421;51.600;5.718;2022-11-06T04:08:12;10.40;80.00
68439;SHT31;55421;51.600;5.718;2022-11-06T04:11:03;10.39;80.02
68439;SHT31;55421;51.600;5.718;2022-11-06T04:13:52;10.38;80.07
68439;SHT31;55421;51.600;5.718;2022-11-06T04:16:47;10.37;80.10
68439;SHT31;55421;51.600;5.718;2022-11-06T04:19:18;10.38;80.10
68439;SHT31;55421;51.600;5.718;2022-11-06T04:27:47;10.43;80.13
68439;SHT31;55421;51.600;5.718;2022-11-06T04:34:07;10.42;80.20
68439;SHT31;55421;51.600;5.718;2022-11-06T04:39:49;10.46;80.20
68439;SHT31;55421;51.600;5.718;2022-11-06T04:42:50;10.45;80.20
68439;SHT31;55421;51.600;5.718;2022-11-06T04:45:36;10.44;80.24
68439;SHT31;55421;51.600;5.718;2022-11-06T04:48:09;10.43;80.27
68439;SHT31;55421;51.600;5.718;2022-11-06T04:50:45;10.42;80.29
68439;SHT31;55421;51.600;5.718;2022-11-06T04:53:18;10.44;80.33
68439;SHT31;55421;51.600;5.718;2022-11-06T04:55:49;10.47;80.36
68439;SHT31;55421;51.600;5.718;2022-11-06T04:58:19;10.45;80.32
68439;SHT31;55421;51.600;5.718;2022-11-06T05:00:47;10.44;80.35
68439;SHT31;55421;51.600;5.718;2022-11-06T05:03:15;10.41;80.40
68439;SHT31;55421;51.600;5.718;2022-11-06T05:05:43;10.38;80.40
68439;SHT31;55421;51.600;5.718;2022-11-06T05:08:12;10.36;80.41
68439;SHT31;55421;51.600;5.718;2022-11-06T05:10:44;10.34;80.43
68439;SHT31;55421;51.600;5.718;2022-11-06T05:13:13;10.33;80.50
68439;SHT31;55421;51.600;5.718;2022-11-06T05:15:41;10.32;80.50
68439;SHT31;55421;51.600;5.718;2022-11-06T05:18:07;10.32;80.54
68439;SHT31;55421;51.600;5.718;2022-11-06T05:20:34;10.31;80.58
68439;SHT31;55421;51.600;5.718;2022-11-06T05:23:01;10.29;80.59
68439;SHT31;55421;51.600;5.718;2022-11-06T05:28:00;10.25;80.60
68439;SHT31;55421;51.600;5.718;2022-11-06T05:30:30;10.25;80.60
68439;SHT31;55421;51.600;5.718;2022-11-06T05:32:56;10.23;80.61
68439;SHT31;55421;51.600;5.718;2022-11-06T05:35:23;10.19;80.70
68439;SHT31;55421;51.600;5.718;2022-11-06T05:37:50;10.16;80.76
68439;SHT31;55421;51.600;5.718;2022-11-06T05:40:16;10.12;80.80
68439;SHT31;55421;51.600;5.718;2022-11-06T05:42:43;10.09;80.88
68439;SHT31;55421;51.600;5.718;2022-11-06T05:45:10;10.08;80.90
68439;SHT31;55421;51.600;5.718;2022-11-06T05:47:40;10.05;80.90
68439;SHT31;55421;51.600;5.718;2022-11-06T05:50:07;10.02;80.96
68439;SHT31;55421;51.600;5.718;2022-11-06T05:52:36;9.97;81.03
68439;SHT31;55421;51.600;5.718;2022-11-06T05:55:03;9.94;81.09
68439;SHT31;55421;51.600;5.718;2022-11-06T05:57:31;9.90;81.11
68439;SHT31;55421;51.600;5.718;2022-11-06T05:59:58;9.88;81.22
68439;SHT31;55421;51.600;5.718;2022-11-06T06:02:25;9.88;81.30
68439;SHT31;55421;51.600;5.718;2022-11-06T06:04:53;9.88;81.31
68439;SHT31;55421;51.600;5.718;2022-11-06T06:07:20;9.86;81.33
68439;SHT31;55421;51.600;5.718;2022-11-06T06:09:47;9.85;81.40
68439;SHT31;55421;51.600;5.718;2022-11-06T06:12:14;9.82;81.40
68439;SHT31;55421;51.600;5.718;2022-11-06T06:14:41;9.79;81.44
68439;SHT31;55421;51.600;5.718;2022-11-06T06:17:07;9.80;81.54
68439;SHT31;55421;51.600;5.718;2022-11-06T06:19:34;9.82;81.59
68439;SHT31;55421;51.600;5.718;2022-11-06T06:22:00;9.83;81.50
68439;SHT31;55421;51.600;5.718;2022-11-06T06:24:27;9.81;81.56
68439;SHT31;55421;51.600;5.718;2022-11-06T06:26:53;9.82;81.60
68439;SHT31;55421;51.600;5.718;2022-11-06T06:29:20;9.82;81.60
68439;SHT31;55421;51.600;5.718;2022-11-06T06:31:46;9.83;81.62
68439;SHT31;55421;51.600;5.718;2022-11-06T06:34:15;9.86;81.64
68439;SHT31;55421;51.600;5.718;2022-11-06T06:36:41;9.89;81.69
68439;SHT31;55421;51.600;5.718;2022-11-06T06:39:07;9.91;81.70
68439;SHT31;55421;51.600;5.718;2022-11-06T06:41:34;9.93;81.70
68439;SHT31;55421;51.600;5.718;2022-11-06T06:44:01;9.96;81.70
68439;SHT31;55421;51.600;5.718;2022-11-06T06:46:27;9.99;81.69
68439;SHT31;55421;51.600;5.718;2022-11-06T06:48:53;10.02;81.67
68439;SHT31;55421;51.600;5.718;2022-11-06T06:51:20;10.07;81.66
68439;SHT31;55421;51.600;5.718;2022-11-06T06:53:46;10.12;81.63
68439;SHT31;55421;51.600;5.718;2022-11-06T06:56:13;10.16;81.60
68439;SHT31;55421;51.600;5.718;2022-11-06T06:58:40;10.18;81.60
68439;SHT31;55421;51.600;5.718;2022-11-06T07:01:07;10.23;81.60
68439;SHT31;55421;51.600;5.718;2022-11-06T07:03:36;10.28;81.51
68439;SHT31;55421;51.600;5.718;2022-11-06T07:06:04;10.34;81.47
68439;SHT31;55421;51.600;5.718;2022-11-06T07:08:32;10.41;81.40
68439;SHT31;55421;51.600;5.718;2022-11-06T07:10:59;10.45;81.27
68439;SHT31;55421;51.600;5.718;2022-11-06T07:13:32;10.48;81.15
68439;SHT31;55421;51.600;5.718;2022-11-06T07:16:01;10.48;81.03
68439;SHT31;55421;51.600;5.718;2022-11-06T07:18:30;10.51;81.00
68439;SHT31;55421;51.600;5.718;2022-11-06T07:20:56;10.53;80.91
68439;SHT31;55421;51.600;5.718;2022-11-06T07:23:23;10.59;80.84
68439;SHT31;55421;51.600;5.718;2022-11-06T07:25:52;10.64;80.77
68439;SHT31;55421;51.600;5.718;2022-11-06T07:28:19;10.68;80.75
68439;SHT31;55421;51.600;5.718;2022-11-06T07:30:46;10.74;80.72
68439;SHT31;55421;51.600;5.718;2022-11-06T07:33:13;10.77;80.62
68439;SHT31;55421;51.600;5.718;2022-11-06T07:35:40;10.81;80.52
68439;SHT31;55421;51.600;5.718;2022-11-06T07:38:06;10.85;80.40
68439;SHT31;55421;51.600;5.718;2022-11-06T07:40:33;10.87;80.36
68439;SHT31;55421;51.600;5.718;2022-11-06T07:43:02;10.87;80.27
68439;SHT31;55421;51.600;5.718;2022-11-06T07:45:34;10.87;80.26
68439;SHT31;55421;51.600;5.718;2022-11-06T07:48:03;10.87;80.22
68439;SHT31;55421;51.600;5.718;2022-11-06T07:50:31;10.88;80.28
68439;SHT31;55421;51.600;5.718;2022-11-06T07:53:07;10.90;80.26
68439;SHT31;55421;51.600;5.718;2022-11-06T07:55:39;10.93;80.19
68439;SHT31;55421;51.600;5.718;2022-11-06T07:58:18;10.96;80.08
68439;SHT31;55421;51.600;5.718;2022-11-06T08:00:50;10.96;80.01
68439;SHT31;55421;51.600;5.718;2022-11-06T08:03:23;10.98;80.00
68439;SHT31;55421;51.600;5.718;2022-11-06T08:06:01;11.00;80.00
68439;SHT31;55421;51.600;5.718;2022-11-06T08:08:30;11.06;79.93
68439;SHT31;55421;51.600;5.718;2022-11-06T08:11:04;11.12;79.86
68439;SHT31;55421;51.600;5.718;2022-11-06T08:13:38;11.18;79.80
68439;SHT31;55421;51.600;5.718;2022-11-06T08:16:10;11.23;79.76
68439;SHT31;55421;51.600;5.718;2022-11-06T08:18:39;11.28;79.66
68439;SHT31;55421;51.600;5.718;2022-11-06T08:21:07;11.33;79.53
68439;SHT31;55421;51.600;5.718;2022-11-06T08:23:34;11.41;79.50
68439;SHT31;55421;51.600;5.718;2022-11-06T08:26:03;11.50;79.47
68439;SHT31;55421;51.600;5.718;2022-11-06T08:28:31;11.59;79.31
68439;SHT31;55421;51.600;5.718;2022-11-06T08:31:02;11.65;79.23
68439;SHT31;55421;51.600;5.718;2022-11-06T08:33:31;11.69;79.06
68439;SHT31;55421;51.600;5.718;2022-11-06T08:36:03;11.70;78.92
68439;SHT31;55421;51.600;5.718;2022-11-06T08:38:31;11.73;78.80
68439;SHT31;55421;51.600;5.718;2022-11-06T08:41:03;11.76;78.84
68439;SHT31;55421;51.600;5.718;2022-11-06T08:43:34;11.84;78.73
68439;SHT31;55421;51.600;5.718;2022-11-06T08:46:03;11.94;78.64
68439;SHT31;55421;51.600;5.718;2022-11-06T08:48:32;12.06;78.50
68439;SHT31;55421;51.600;5.718;2022-11-06T08:51:00;12.15;78.36
68439;SHT31;55421;51.600;5.718;2022-11-06T08:53:29;12.21;78.16
68439;SHT31;55421;51.600;5.718;2022-11-06T08:55:56;12.28;78.05
68439;SHT31;55421;51.600;5.718;2022-11-06T08:58:23;12.33;77.92
68439;SHT31;55421;51.600;5.718;2022-11-06T09:00:49;12.38;77.85
68439;SHT31;55421;51.600;5.718;2022-11-06T09:03:16;12.40;77.57
68439;SHT31;55421;51.600;5.718;2022-11-06T09:05:43;12.40;77.40
68439;SHT31;55421;51.600;5.718;2022-11-06T09:08:11;12.39;77.30
68439;SHT31;55421;51.600;5.718;2022-11-06T09:10:39;12.38;77.32
68439;SHT31;55421;51.600;5.718;2022-11-06T09:13:08;12.38;77.26
68439;SHT31;55421;51.600;5.718;2022-11-06T09:15:43;12.41;77.15
68439;SHT31;55421;51.600;5.718;2022-11-06T09:18:13;12.47;77.00
68439;SHT31;55421;51.600;5.718;2022-11-06T09:20:40;12.57;77.13
68439;SHT31;55421;51.600;5.718;2022-11-06T09:23:07;12.67;77.16
68439;SHT31;55421;51.600;5.718;2022-11-06T09:25:35;12.73;76.99
68439;SHT31;55421;51.600;5.718;2022-11-06T09:28:01;12.73;76.84
68439;SHT31;55421;51.600;5.718;2022-11-06T09:30:29;12.71;76.80
68439;SHT31;55421;51.600;5.718;2022-11-06T09:32:58;12.70;76.87
68439;SHT31;55421;51.600;5.718;2022-11-06T09:35:28;12.71;77.00
68439;SHT31;55421;51.600;5.718;2022-11-06T09:38:05;12.74;76.78
68439;SHT31;55421;51.600;5.718;2022-11-06T09:40:37;12.79;76.64
68439;SHT31;55421;51.600;5.718;2022-11-06T09:49:02;13.02;76.12
68439;SHT31;55421;51.600;5.718;2022-11-06T09:51:51;13.01;75.93
68439;SHT31;55421;51.600;5.718;2022-11-06T09:54:32;12.98;75.70
68439;SHT31;55421;51.600;5.718;2022-11-06T09:57:15;12.94;75.62
68439;SHT31;55421;51.600;5.718;2022-11-06T09:59:47;12.88;75.46
68439;SHT31;55421;51.600;5.718;2022-11-06T10:02:30;12.87;75.44
68439;SHT31;55421;51.600;5.718;2022-11-06T10:05:24;12.87;75.37
68439;SHT31;55421;51.600;5.718;2022-11-06T10:08:03;12.86;75.28
68439;SHT31;55421;51.600;5.718;2022-11-06T10:13:31;12.80;74.90
68439;SHT31;55421;51.600;5.718;2022-11-06T10:22:02;12.81;74.76
68439;SHT31;55421;51.600;5.718;2022-11-06T10:24:45;12.82;74.61
68439;SHT31;55421;51.600;5.718;2022-11-06T10:28:03;12.86;74.68
68439;SHT31;55421;51.600;5.718;2022-11-06T10:36:46;12.90;74.41
68439;SHT31;55421;51.600;5.718;2022-11-06T10:39:19;12.89;74.10
68439;SHT31;55421;51.600;5.718;2022-11-06T10:41:54;12.88;74.03
68439;SHT31;55421;51.600;5.718;2022-11-06T10:44:46;12.86;74.00
68439;SHT31;55421;51.600;5.718;2022-11-06T10:47:22;12.86;74.18
68439;SHT31;55421;51.600;5.718;2022-11-06T10:49:57;12.86;74.20
68439;SHT31;55421;51.600;5.718;2022-11-06T10:58:12;12.92;74.17
68439;SHT31;55421;51.600;5.718;2022-11-06T11:00:44;12.99;74.05
68439;SHT31;55421;51.600;5.718;2022-11-06T11:06:16;13.13;73.86
68439;SHT31;55421;51.600;5.718;2022-11-06T11:08:44;13.16;73.59
68439;SHT31;55421;51.600;5.718;2022-11-06T11:16:33;13.26;72.48
68439;SHT31;55421;51.600;5.718;2022-11-06T11:25:01;13.35;71.67
68439;SHT31;55421;51.600;5.718;2022-11-06T11:27:51;13.38;71.08
68439;SHT31;55421;51.600;5.718;2022-11-06T11:30:20;13.41;71.17
68439;SHT31;55421;51.600;5.718;2022-11-06T11:32:52;13.43;71.14
68439;SHT31;55421;51.600;5.718;2022-11-06T11:35:20;13.41;70.85
68439;SHT31;55421;51.600;5.718;2022-11-06T11:38:10;13.37;70.65
68439;SHT31;55421;51.600;5.718;2022-11-06T11:40:40;13.34;70.70
68439;SHT31;55421;51.600;5.718;2022-11-06T11:51:18;13.30;70.41
68439;SHT31;55421;51.600;5.718;2022-11-06T11:53:50;13.30;70.23
68439;SHT31;55421;51.600;5.718;2022-11-06T11:56:21;13.30;70.34
68439;SHT31;55421;51.600;5.718;2022-11-06T11:58:49;13.29;70.21
68439;SHT31;55421;51.600;5.718;2022-11-06T12:01:19;13.28;69.82
68439;SHT31;55421;51.600;5.718;2022-11-06T12:04:06;13.27;69.69
68439;SHT31;55421;51.600;5.718;2022-11-06T12:09:29;13.23;69.25
68439;SHT31;55421;51.600;5.718;2022-11-06T12:12:05;13.23;69.40
68439;SHT31;55421;51.600;5.718;2022-11-06T12:14:46;13.25;69.32
68439;SHT31;55421;51.600;5.718;2022-11-06T12:17:14;13.25;69.16
68439;SHT31;55421;51.600;5.718;2022-11-06T12:19:50;13.25;69.15
68439;SHT31;55421;51.600;5.718;2022-11-06T12:22:23;13.26;69.18
68439;SHT31;55421;51.600;5.718;2022-11-06T12:25:02;13.30;68.88
68439;SHT31;55421;51.600;5.718;2022-11-06T12:27:40;13.35;68.81
68439;SHT31;55421;51.600;5.718;2022-11-06T12:30:13;13.41;68.67
68439;SHT31;55421;51.600;5.718;2022-11-06T12:35:47;13.48;68.70
68439;SHT31;55421;51.600;5.718;2022-11-06T12:41:39;13.49;68.58
68439;SHT31;55421;51.600;5.718;2022-11-06T12:44:11;13.46;68.31
68439;SHT31;55421;51.600;5.718;2022-11-06T12:55:15;13.42;68.52
68439;SHT31;55421;51.600;5.718;2022-11-06T13:03:50;13.50;68.53
68439;SHT31;55421;51.600;5.718;2022-11-06T13:07:06;13.52;68.37
68439;SHT31;55421;51.600;5.718;2022-11-06T13:10:22;13.52;68.33
68439;SHT31;55421;51.600;5.718;2022-11-06T13:13:09;13.52;68.23
68439;SHT31;55421;51.600;5.718;2022-11-06T13:15:57;13.50;68.03
68439;SHT31;55421;51.600;5.718;2022-11-06T13:18:55;13.47;67.96
68439;SHT31;55421;51.600;5.718;2022-11-06T13:21:38;13.44;67.91
68439;SHT31;55421;51.600;5.718;2022-11-06T13:24:36;13.43;68.08
68439;SHT31;55421;51.600;5.718;2022-11-06T13:29:42;13.34;67.64
68439;SHT31;55421;51.600;5.718;2022-11-06T13:32:12;13.30;66.78
68439;SHT31;55421;51.600;5.718;2022-11-06T13:34:46;13.27;66.50
68439;SHT31;55421;51.600;5.718;2022-11-06T13:37:34;13.26;66.91
68439;SHT31;55421;51.600;5.718;2022-11-06T13:40:17;13.24;66.46
68439;SHT31;55421;51.600;5.718;2022-11-06T13:42:58;13.20;66.52
68439;SHT31;55421;51.600;5.718;2022-11-06T13:45:36;13.16;66.67
68439;SHT31;55421;51.600;5.718;2022-11-06T13:48:23;13.11;66.39
68439;SHT31;55421;51.600;5.718;2022-11-06T13:51:06;13.05;66.58
68439;SHT31;55421;51.600;5.718;2022-11-06T13:54:33;12.99;66.71
68439;SHT31;55421;51.600;5.718;2022-11-06T13:57:11;12.94;66.70
68439;SHT31;55421;51.600;5.718;2022-11-06T14:00:17;12.90;67.21
68439;SHT31;55421;51.600;5.718;2022-11-06T14:03:04;12.90;67.67
68439;SHT31;55421;51.600;5.718;2022-11-06T14:06:19;12.87;68.14
68439;SHT31;55421;51.600;5.718;2022-11-06T14:08:51;12.81;68.62
68439;SHT31;55421;51.600;5.718;2022-11-06T14:11:32;12.75;69.02
68439;SHT31;55421;51.600;5.718;2022-11-06T14:14:10;12.66;69.49
68439;SHT31;55421;51.600;5.718;2022-11-06T14:17:07;12.59;69.71
68439;SHT31;55421;51.600;5.718;2022-11-06T14:22:16;12.46;70.77
68439;SHT31;55421;51.600;5.718;2022-11-06T14:24:57;12.42;71.09
68439;SHT31;55421;51.600;5.718;2022-11-06T14:32:42;12.28;71.88
68439;SHT31;55421;51.600;5.718;2022-11-06T14:40:52;12.12;72.30
68439;SHT31;55421;51.600;5.718;2022-11-06T14:43:19;12.03;72.60
68439;SHT31;55421;51.600;5.718;2022-11-06T14:46:03;11.98;72.91
68439;SHT31;55421;51.600;5.718;2022-11-06T14:48:42;11.94;73.13
68439;SHT31;55421;51.600;5.718;2022-11-06T14:51:21;11.89;73.30
68439;SHT31;55421;51.600;5.718;2022-11-06T14:53:59;11.85;73.40
68439;SHT31;55421;51.600;5.718;2022-11-06T14:56:43;11.80;73.45
68439;SHT31;55421;51.600;5.718;2022-11-06T14:59:20;11.73;73.62
68439;SHT31;55421;51.600;5.718;2022-11-06T15:02:00;11.67;73.88
68439;SHT31;55421;51.600;5.718;2022-11-06T15:04:45;11.63;74.11
68439;SHT31;55421;51.600;5.718;2022-11-06T15:07:32;11.63;74.33
68439;SHT31;55421;51.600;5.718;2022-11-06T15:15:44;11.54;74.69
68439;SHT31;55421;51.600;5.718;2022-11-06T15:18:17;11.43;74.44
68439;SHT31;55421;51.600;5.718;2022-11-06T15:20:54;11.34;74.60
68439;SHT31;55421;51.600;5.718;2022-11-06T15:23:27;11.27;74.71
68439;SHT31;55421;51.600;5.718;2022-11-06T15:26:01;11.26;74.90
68439;SHT31;55421;51.600;5.718;2022-11-06T15:28:51;11.25;74.93
68439;SHT31;55421;51.600;5.718;2022-11-06T15:31:38;11.20;74.89
68439;SHT31;55421;51.600;5.718;2022-11-06T15:34:15;11.16;74.98
68439;SHT31;55421;51.600;5.718;2022-11-06T15:36:48;11.12;75.06
68439;SHT31;55421;51.600;5.718;2022-11-06T15:41:55;11.00;75.45
68439;SHT31;55421;51.600;5.718;2022-11-06T15:44:22;10.95;75.66
68439;SHT31;55421;51.600;5.718;2022-11-06T15:46:54;10.94;75.86
68439;SHT31;55421;51.600;5.718;2022-11-06T15:49:23;10.92;76.03
68439;SHT31;55421;51.600;5.718;2022-11-06T15:51:52;10.91;76.20
68439;SHT31;55421;51.600;5.718;2022-11-06T15:54:56;10.85;76.39
68439;SHT31;55421;51.600;5.718;2022-11-06T15:57:23;10.78;76.55
68439;SHT31;55421;51.600;5.718;2022-11-06T16:02:58;10.68;76.94
68439;SHT31;55421;51.600;5.718;2022-11-06T16:05:27;10.68;76.99
68439;SHT31;55421;51.600;5.718;2022-11-06T16:08:00;10.68;76.99
68439;SHT31;55421;51.600;5.718;2022-11-06T16:10:28;10.65;76.99
68439;SHT31;55421;51.600;5.718;2022-11-06T16:12:55;10.62;77.00
68439;SHT31;55421;51.600;5.718;2022-11-06T16:18:10;10.55;77.07
68439;SHT31;55421;51.600;5.718;2022-11-06T16:21:00;10.51;77.09
68439;SHT31;55421;51.600;5.718;2022-11-06T16:23:49;10.52;77.20
68439;SHT31;55421;51.600;5.718;2022-11-06T16:26:22;10.52;77.23
68439;SHT31;55421;51.600;5.718;2022-11-06T16:29:06;10.49;77.13
68439;SHT31;55421;51.600;5.718;2022-11-06T16:31:37;10.47;77.05
68439;SHT31;55421;51.600;5.718;2022-11-06T16:34:06;10.45;77.16
68439;SHT31;55421;51.600;5.718;2022-11-06T16:36:48;10.45;77.25
68439;SHT31;55421;51.600;5.718;2022-11-06T16:42:00;10.48;77.29
68439;SHT31;55421;51.600;5.718;2022-11-06T16:44:45;10.48;77.38
68439;SHT31;55421;51.600;5.718;2022-11-06T16:47:14;10.45;77.50
68439;SHT31;55421;51.600;5.718;2022-11-06T16:49:48;10.41;77.64
68439;SHT31;55421;51.600;5.718;2022-11-06T16:55:02;10.40;78.00
68439;SHT31;55421;51.600;5.718;2022-11-06T16:57:47;10.40;78.14
68439;SHT31;55421;51.600;5.718;2022-11-06T17:02:46;10.36;78.30
68439;SHT31;55421;51.600;5.718;2022-11-06T17:05:20;10.34;78.36
68439;SHT31;55421;51.600;5.718;2022-11-06T17:10:47;10.34;78.45
68439;SHT31;55421;51.600;5.718;2022-11-06T17:13:25;10.34;78.58
68439;SHT31;55421;51.600;5.718;2022-11-06T17:15:58;10.35;78.56
68439;SHT31;55421;51.600;5.718;2022-11-06T17:18:29;10.32;78.45
68439;SHT31;55421;51.600;5.718;2022-11-06T17:21:00;10.29;78.57
68439;SHT31;55421;51.600;5.718;2022-11-06T17:23:42;10.26;78.78
68439;SHT31;55421;51.600;5.718;2022-11-06T17:28:55;10.23;78.88
68439;SHT31;55421;51.600;5.718;2022-11-06T17:31:23;10.22;79.08
68439;SHT31;55421;51.600;5.718;2022-11-06T17:33:52;10.23;79.09
68439;SHT31;55421;51.600;5.718;2022-11-06T17:36:21;10.22;79.09
68439;SHT31;55421;51.600;5.718;2022-11-06T17:38:53;10.22;79.16
68439;SHT31;55421;51.600;5.718;2022-11-06T17:41:21;10.27;79.18
68439;SHT31;55421;51.600;5.718;2022-11-06T17:44:02;10.28;79.08
68439;SHT31;55421;51.600;5.718;2022-11-06T17:46:39;10.26;78.98
68439;SHT31;55421;51.600;5.718;2022-11-06T17:49:12;10.26;79.00
68439;SHT31;55421;51.600;5.718;2022-11-06T17:51:40;10.25;78.99
68439;SHT31;55421;51.600;5.718;2022-11-06T17:54:19;10.23;79.00
68439;SHT31;55421;51.600;5.718;2022-11-06T17:56:48;10.27;78.98
68439;SHT31;55421;51.600;5.718;2022-11-06T17:59:16;10.28;78.97
68439;SHT31;55421;51.600;5.718;2022-11-06T18:01:43;10.29;78.89
68439;SHT31;55421;51.600;5.718;2022-11-06T18:04:09;10.28;78.89
68439;SHT31;55421;51.600;5.718;2022-11-06T18:06:35;10.26;78.87
68439;SHT31;55421;51.600;5.718;2022-11-06T18:09:03;10.23;78.80
68439;SHT31;55421;51.600;5.718;2022-11-06T18:11:32;10.22;78.80
68439;SHT31;55421;51.600;5.718;2022-11-06T18:13:59;10.22;78.75
68439;SHT31;55421;51.600;5.718;2022-11-06T18:16:28;10.22;78.75
68439;SHT31;55421;51.600;5.718;2022-11-06T18:18:57;10.20;78.76
68439;SHT31;55421;51.600;5.718;2022-11-06T18:21:25;10.19;78.80
68439;SHT31;55421;51.600;5.718;2022-11-06T18:23:52;10.19;78.80
68439;SHT31;55421;51.600;5.718;2022-11-06T18:26:19;10.17;78.79
68439;SHT31;55421;51.600;5.718;2022-11-06T18:28:49;10.16;78.70
68439;SHT31;55421;51.600;5.718;2022-11-06T18:31:16;10.17;78.73
68439;SHT31;55421;51.600;5.718;2022-11-06T18:33:44;10.19;78.71
68439;SHT31;55421;51.600;5.718;2022-11-06T18:36:13;10.19;78.68
68439;SHT31;55421;51.600;5.718;2022-11-06T18:38:41;10.19;78.60
68439;SHT31;55421;51.600;5.718;2022-11-06T18:41:09;10.18;78.60
68439;SHT31;55421;51.600;5.718;2022-11-06T18:43:39;10.18;78.51
68439;SHT31;55421;51.600;5.718;2022-11-06T18:46:08;10.20;78.57